This is the latest recevied weather packets stored in our database for station/object DL1AIE-13. If no packets are shown the sender has not sent any weather packets the latest 10 day(s).
| Time | Temp. | Humidity | Pressure | Rain* | Wind** | Luminosity | Snow |
|---|---|---|---|---|---|---|---|
| 1777817840 | 23.33° C | 39% | 1012.9 hPa | 0 mm | - | - | - |
| 1777817237 | 23.33° C | 39% | 1013.3 hPa | 0 mm | - | - | - |
| 1777816653 | 23.33° C | 39% | 1013.2 hPa | 0 mm | - | - | - |
| 1777816049 | 23.33° C | 39% | 1013.3 hPa | 0 mm | - | - | - |
| 1777815446 | 23.33° C | 38% | 1013.3 hPa | 0 mm | - | - | - |
| 1777814841 | 23.33° C | 37% | 1013.5 hPa | 0 mm | - | - | - |
| 1777814238 | 23.33° C | 36% | 1013.5 hPa | 0 mm | - | - | - |
| 1777813655 | 23.33° C | 36% | 1013.7 hPa | 0 mm | - | - | - |
| 1777813054 | 23.89° C | 35% | 1013.7 hPa | 0 mm | - | - | - |
| 1777812447 | 23.89° C | 35% | 1013.9 hPa | 0 mm | - | - | - |
| 1777811843 | 23.33° C | 36% | 1014 hPa | 0 mm | - | - | - |
| 1777811240 | 23.33° C | 36% | 1014 hPa | 0 mm | - | - | - |
| 1777810636 | 23.33° C | 37% | 1014 hPa | 0 mm | - | - | - |
| 1777810053 | 23.89° C | 36% | 1014.1 hPa | 0 mm | - | - | - |
| 1777809449 | 22.78° C | 37% | 1014.2 hPa | 0 mm | - | - | - |
| 1777808846 | 23.33° C | 36% | 1014.2 hPa | 0 mm | - | - | - |
| 1777808242 | 23.33° C | 36% | 1014.4 hPa | 0 mm | - | - | - |
| 1777807638 | 21.11° C | 39% | 1014.5 hPa | 0 mm | - | - | - |
| 1777807054 | 21.11° C | 39% | 1014.5 hPa | 0 mm | - | - | - |
| 1777806451 | 21.11° C | 40% | 1014.7 hPa | 0 mm | - | - | - |
| 1777805848 | 20° C | 45% | 1014.8 hPa | 0 mm | - | - | - |
| 1777805244 | 19.44° C | 47% | 1014.9 hPa | 0 mm | - | - | - |
| 1777804640 | 19.44° C | 45% | 1014.8 hPa | 0 mm | - | - | - |
| 1777804037 | 19.44° C | 44% | 1014.9 hPa | 0 mm | - | - | - |
| 1777803455 | 19.44° C | 42% | 1015.1 hPa | 0 mm | - | - | - |
* Rain latest hour (hover to see other rain measurements)
** Current wind speed in m/s (hover to see current wind gust speed)